Hauptseite
METAR-TAF:

METAR-TAF

Flughäfen :

Dschidda, Saudi-Arabien

Internationaler König-Abd-al-Aziz-Flughafen

Breite: 21-42N, Länge: 039-11E, Höhe: 15 m

Beobachtung

Neuester Wetterbericht von vor 41 Minuten, um 02:00 UTC
Wind 6 kt aus Nord/Nordwest
Temperatur 31°C
Luftfeuchtigkeit 46%
Luftdruck 1002 hPa
Sichtweite 10 km oder mehr
keine Wolken unter 1500 m und keine Kumulonimbus oder Gewitterwolken

METAR: OEJN 280200Z 33006KT CAVOK 31/18 Q1002 NOSIG

Zeit: 05:41 (02:41 UTC)

Prognose

Neuester Wetterbericht von vor 3 Stunden und 41 Minuten, um 23:00 UTC
Gültige Prognose vom 28 um 00 UTC bis 29 um 06 UTC
Wind 6 kt aus Nord
Sichtweite 10 km oder mehr
Leicht bewölkt in der Höhe von 4000 ft
Aufgelockert bewölkt in der Höhe von 10000 ft
Übergehend zu
vom 28 um 06 UTC bis 28 um 08 UTC
Wind 10 kt aus West/Nordwest, Böen bis zu 20 kt

TAF: OEJN 272300Z 2800/2906 36006KT 9999 FEW040 SCT100 BECMG 2806/2808 29010G20KT

Wetterbeobachtungen und Prognosen von mehr als 4000 Flughäfen (METAR und TAF Bericht).

Die verfügbaren Stationen werden durch gelbe und rote Markierungen auf der Karte dargestellt.

Führen Sie die Maus auf sie, um den Namen der Station zu sehen.

Darauf klicken, um die Beobachtung von Wetterbeobachtungen und Prognosen zu sehen.

Um die Karte zu ändern : klicken Sie auf den grünen Tasten mit einem schwarzen Kreuz Zum Vergrößern, auf den grünen Button mit einem Gedankenstrich zu verkleinern, oder auf die grünen Pfeile für benachbarte Karten.


METAR-TAF: